Time;durP1;ratioP1;P1;durP2;ratioP2;P2;SDS_P1;SDS_P2;PMS_P1;PMS_P2;Temp;Humidity;BMP_temperature;BMP_pressure;BME280_temperature;BME280_humidity;BME280_pressure;Samples;Min_cycle;Max_cycle;Signal;HPM_P1;HPM_P2
2022/12/02 00:00:49;;;;;;;0.10;0.10;;;;;;;6.64;74.02;102785.75;5068524;28;20028;-80
2022/12/02 00:03:19;;;;;;;0.28;0.28;;;;;;;6.64;73.61;102786.66;5069770;28;20025;-81
2022/12/02 00:05:49;;;;;;;0.15;0.15;;;;;;;6.64;73.87;102785.75;5066881;28;20037;-81
2022/12/02 00:08:20;;;;;;;5.45;0.77;;;;;;;6.66;73.99;102786.69;5069840;28;20029;-81
2022/12/02 00:10:47;;;;;;;0.10;0.10;;;;;;;6.67;73.95;102788.50;5075351;28;20103;-81
2022/12/02 00:15:59;;;;;;;0.17;0.17;;;;;;;6.70;73.89;102770.13;5060526;28;20384;-80
2022/12/02 00:18:26;;;;;;;0.10;0.10;;;;;;;6.71;74.23;102766.63;5053135;28;20056;-79
2022/12/02 00:20:53;;;;;;;1.35;1.10;;;;;;;6.73;74.18;102771.94;5052405;28;20060;-79
2022/12/02 00:23:20;;;;;;;0.63;0.63;;;;;;;6.72;74.41;102768.44;5050760;28;20048;-80
2022/12/02 00:25:48;;;;;;;1.77;1.67;;;;;;;6.73;74.13;102759.69;5051247;28;20160;-80
2022/12/02 00:28:15;;;;;;;0.10;0.10;;;;;;;6.73;73.87;102764.94;5052526;28;20028;-80
2022/12/02 00:30:42;;;;;;;0.30;0.30;;;;;;;6.72;74.35;102768.44;5051961;28;20021;-80
2022/12/02 00:33:09;;;;;;;0.40;0.40;;;;;;;6.74;73.82;102768.47;5054580;28;20099;-80
2022/12/02 00:35:36;;;;;;;0.43;0.43;;;;;;;6.75;74.31;102765.91;5050698;28;20022;-80
2022/12/02 00:38:03;;;;;;;0.20;0.20;;;;;;;6.75;74.02;102758.00;5051181;28;20039;-80
2022/12/02 00:40:29;;;;;;;0.20;0.20;;;;;;;6.75;73.95;102763.25;5047193;28;20055;-80
2022/12/02 00:46:30;;;;;;;2.97;0.95;;;;;;;6.79;73.81;102767.75;5052394;28;20045;-80
2022/12/02 00:48:27;;;;;;;0.35;0.35;;;;;;;6.79;73.92;102759.84;5050932;28;20064;-80
2022/12/02 00:50:53;;;;;;;0.55;0.55;;;;;;;6.75;73.97;102762.34;5052305;28;20025;-80
2022/12/02 00:53:19;;;;;;;0.20;0.20;;;;;;;6.77;73.79;102751.00;5050322;28;20504;-80
2022/12/02 00:55:45;;;;;;;0.65;0.65;;;;;;;6.80;73.96;102751.09;5051813;28;20076;-80
2022/12/02 00:58:11;;;;;;;2.83;1.20;;;;;;;6.81;74.11;102751.97;5053522;28;20055;-80
2022/12/02 01:00:38;;;;;;;1.85;1.75;;;;;;;6.83;74.32;102750.28;5054620;28;20029;-80
2022/12/02 01:03:04;;;;;;;0.22;0.22;;;;;;;6.85;73.95;102755.59;5053642;28;20038;-80
2022/12/02 01:05:30;;;;;;;1.95;1.83;;;;;;;6.87;74.06;102757.41;5051562;28;20073;-80
2022/12/02 01:07:56;;;;;;;0.60;0.60;;;;;;;6.90;74.16;102756.59;5049345;28;20056;-80
2022/12/02 01:10:22;;;;;;;0.20;0.20;;;;;;;6.90;74.12;102740.78;5049514;28;20033;-80
2022/12/02 01:12:48;;;;;;;0.57;0.57;;;;;;;6.89;73.92;102742.53;5050229;28;20092;-80
2022/12/02 01:15:14;;;;;;;0.20;0.20;;;;;;;6.88;73.76;102742.47;5052044;28;20499;-80
2022/12/02 01:17:40;;;;;;;0.35;0.35;;;;;;;6.86;74.17;102745.06;5054489;28;20037;-80
2022/12/02 01:20:07;;;;;;;0.17;0.17;;;;;;;6.86;73.96;102738.94;5052081;28;20079;-80
2022/12/02 01:22:33;;;;;;;6.43;1.65;;;;;;;6.85;74.20;102752.94;5053508;28;20022;-80
2022/12/02 01:24:59;;;;;;;0.10;0.10;;;;;;;6.85;73.87;102738.03;5053717;28;20026;-80
2022/12/02 01:27:26;;;;;;;2.30;2.20;;;;;;;6.84;74.19;102746.81;5032393;28;20034;-80
2022/12/02 01:29:52;;;;;;;0.93;0.93;;;;;;;6.82;73.85;102737.03;5038283;28;20079;-80
2022/12/02 01:32:19;;;;;;;0.30;0.30;;;;;;;6.80;73.89;102737.91;5039356;28;20029;-80
2022/12/02 01:34:46;;;;;;;0.10;0.10;;;;;;;6.79;74.00;102744.03;5039976;28;20085;-80
2022/12/02 01:37:12;;;;;;;2.35;1.92;;;;;;;6.80;74.19;102740.56;5039027;28;20215;-80
2022/12/02 01:39:38;;;;;;;1.33;1.23;;;;;;;6.80;73.86;102737.91;5037266;28;20957;-80
2022/12/02 01:42:04;;;;;;;0.30;0.30;;;;;;;6.81;74.02;102744.06;5038690;28;20029;-80
2022/12/02 01:44:31;;;;;;;0.40;0.40;;;;;;;6.82;74.04;102744.94;5036829;28;20030;-80
2022/12/02 01:46:58;;;;;;;0.10;0.10;;;;;;;6.79;74.35;102744.03;5033537;28;20081;-80
2022/12/02 01:49:24;;;;;;;1.02;1.02;;;;;;;6.80;74.17;102745.81;5036438;28;20021;-79
2022/12/02 01:51:51;;;;;;;0.68;0.68;;;;;;;6.80;73.98;102745.81;5040763;28;20052;-79
2022/12/02 01:54:17;;;;;;;0.80;0.80;;;;;;;6.82;74.06;102748.50;5043435;28;20021;-79
2022/12/02 01:56:43;;;;;;;0.20;0.20;;;;;;;6.82;74.09;102755.50;5043469;28;20033;-79
2022/12/02 01:59:13;;;;;;;0.55;0.55;;;;;;;6.84;74.00;102759.06;5041459;28;20037;-79
2022/12/02 02:01:39;;;;;;;0.13;0.13;;;;;;;6.82;74.11;102764.31;5040877;28;20033;-79
2022/12/02 02:04:06;;;;;;;0.20;0.20;;;;;;;6.80;73.65;102756.38;5039063;28;20026;-79
2022/12/02 02:06:37;;;;;;;0.80;0.80;;;;;;;6.83;73.83;102752.00;5043794;28;20091;-79
2022/12/02 02:09:06;;;;;;;0.20;0.20;;;;;;;6.80;73.74;102751.09;5039312;28;20025;-79
2022/12/02 02:11:33;;;;;;;0.20;0.20;;;;;;;6.79;73.89;102744.03;5048559;28;20485;-80
2022/12/02 02:13:59;;;;;;;2.08;1.95;;;;;;;6.77;73.81;102742.22;5043434;28;20171;-81
2022/12/02 02:16:26;;;;;;;1.77;1.67;;;;;;;6.76;73.79;102736.03;5038637;28;20501;-81
2022/12/02 02:18:52;;;;;;;2.67;2.47;;;;;;;6.75;74.01;102739.56;5037490;28;20064;-81
2022/12/02 02:21:23;;;;;;;0.65;0.65;;;;;;;6.75;73.84;102736.91;5032249;28;20042;-81
2022/12/02 02:23:49;;;;;;;0.30;0.30;;;;;;;6.72;74.08;102731.53;5038993;28;20057;-81
2022/12/02 02:26:16;;;;;;;2.40;0.45;;;;;;;6.70;73.92;102733.25;5036258;28;20041;-81
2022/12/02 02:28:42;;;;;;;0.20;0.20;;;;;;;6.69;73.58;102731.47;5037107;28;20028;-81
2022/12/02 02:31:09;;;;;;;0.73;0.68;;;;;;;6.68;73.93;102720.88;5036605;28;20461;-81
2022/12/02 02:33:35;;;;;;;0.20;0.20;;;;;;;6.64;73.73;102722.53;5037146;28;20083;-81
2022/12/02 02:36:03;;;;;;;0.22;0.22;;;;;;;6.64;73.74;102717.28;5035635;28;20558;-80
2022/12/02 02:38:30;;;;;;;0.73;0.70;;;;;;;6.63;73.49;102716.41;5033661;28;20068;-81
2022/12/02 02:40:57;;;;;;;1.40;0.45;;;;;;;6.63;73.51;102715.50;5037902;28;20436;-81
2022/12/02 02:43:26;;;;;;;1.27;1.27;;;;;;;6.61;73.64;102719.84;5037690;28;20021;-81
2022/12/02 02:45:53;;;;;;;1.45;0.95;;;;;;;6.59;73.47;102714.53;5035833;28;20041;-81
2022/12/02 02:48:20;;;;;;;0.47;0.47;;;;;;;6.58;73.51;102706.56;5035382;28;20044;-81
2022/12/02 02:50:47;;;;;;;3.83;3.58;;;;;;;6.57;73.15;102704.81;5034238;28;20044;-81
2022/12/02 02:53:18;;;;;;;1.10;1.10;;;;;;;6.57;73.27;102707.44;5037505;28;20057;-81
2022/12/02 02:55:44;;;;;;;1.90;1.80;;;;;;;6.56;73.24;102703.91;5024478;28;20397;-81
2022/12/02 03:00:59;;;;;;;0.30;0.30;;;;;;;6.58;73.14;102702.22;5074773;28;20972;-79
2022/12/02 03:03:30;;;;;;;0.60;0.60;;;;;;;6.60;73.38;102704.88;5049496;28;20040;-79
2022/12/02 03:05:58;;;;;;;1.35;1.25;;;;;;;6.58;73.18;102698.66;5038290;28;20045;-80
2022/12/02 03:08:25;;;;;;;0.25;0.25;;;;;;;6.57;73.32;102699.53;5035408;28;20605;-80
2022/12/02 03:10:53;;;;;;;1.27;1.10;;;;;;;6.60;73.37;102703.16;5064329;28;20029;-80
2022/12/02 03:13:20;;;;;;;2.05;1.95;;;;;;;6.60;73.19;102691.72;5064348;28;20059;-80
2022/12/02 03:15:47;;;;;;;0.40;0.40;;;;;;;6.63;73.73;102694.44;5059558;28;20036;-80
2022/12/02 03:18:14;;;;;;;0.50;0.50;;;;;;;6.61;73.25;102686.47;5054340;28;20279;-80
2022/12/02 03:20:40;;;;;;;2.33;2.13;;;;;;;6.62;73.55;102683.00;5054494;28;20471;-80
2022/12/02 03:23:06;;;;;;;0.57;0.57;;;;;;;6.63;73.23;102694.44;5069021;28;20033;-80
2022/12/02 03:25:33;;;;;;;0.45;0.45;;;;;;;6.63;72.98;102691.81;5067587;28;20024;-80
2022/12/02 03:28:00;;;;;;;1.70;1.60;;;;;;;6.63;73.25;102690.06;5061432;28;20040;-80
2022/12/02 03:30:26;;;;;;;0.40;0.40;;;;;;;6.61;73.14;102681.22;5055927;28;20033;-80
2022/12/02 03:32:52;;;;;;;1.98;1.88;;;;;;;6.60;72.76;102673.28;5051223;28;20064;-80
2022/12/02 03:35:19;;;;;;;0.93;0.93;;;;;;;6.60;72.27;102674.19;5060389;28;20025;-80
2022/12/02 03:37:45;;;;;;;1.45;1.00;;;;;;;6.61;72.67;102672.44;5066500;28;20074;-80
2022/12/02 03:40:12;;;;;;;1.13;1.13;;;;;;;6.62;72.65;102663.69;5058160;28;20032;-80
2022/12/02 03:42:38;;;;;;;1.35;1.35;;;;;;;6.62;72.79;102661.03;5056126;28;20061;-80
2022/12/02 03:45:05;;;;;;;0.20;0.20;;;;;;;6.64;73.06;102656.69;5069120;28;20051;-80
2022/12/02 03:47:31;;;;;;;0.30;0.30;;;;;;;6.66;73.17;102665.53;5047099;28;20134;-80
2022/12/02 03:49:58;;;;;;;0.70;0.65;;;;;;;6.68;73.12;102660.28;5053078;28;20516;-80
2022/12/02 03:52:24;;;;;;;0.20;0.20;;;;;;;6.71;73.13;102669.16;5057444;28;20033;-80
2022/12/02 03:54:51;;;;;;;1.85;1.75;;;;;;;6.73;73.27;102664.84;5055418;28;20029;-80
2022/12/02 03:57:17;;;;;;;0.25;0.25;;;;;;;6.74;73.74;102653.47;5069777;28;20036;-80
2022/12/02 03:59:43;;;;;;;0.20;0.20;;;;;;;6.75;73.26;102668.41;5066237;28;20048;-80
2022/12/02 04:02:09;;;;;;;0.20;0.20;;;;;;;6.76;73.00;102664.03;5058362;28;20032;-80
2022/12/02 04:04:35;;;;;;;0.63;0.63;;;;;;;6.75;73.15;102651.69;5044446;28;20029;-80
2022/12/02 04:07:01;;;;;;;0.20;0.20;;;;;;;6.77;73.32;102665.81;5055486;28;20025;-80
2022/12/02 04:09:27;;;;;;;0.65;0.65;;;;;;;6.76;72.63;102659.63;5044993;28;20028;-80
2022/12/02 04:11:53;;;;;;;0.57;0.57;;;;;;;6.76;72.85;102664.91;5059588;28;20094;-80
2022/12/02 04:14:19;;;;;;;2.33;2.17;;;;;;;6.75;73.06;102657.88;5051396;28;20029;-80
2022/12/02 04:16:46;;;;;;;0.93;0.93;;;;;;;6.72;72.29;102652.50;5046732;28;20531;-80
2022/12/02 04:19:14;;;;;;;0.98;0.98;;;;;;;6.71;72.46;102666.53;5043797;28;20085;-80
2022/12/02 04:21:40;;;;;;;2.05;1.65;;;;;;;6.71;72.80;102661.28;5035682;28;20029;-80
2022/12/02 04:24:07;;;;;;;0.35;0.35;;;;;;;6.70;72.67;102667.38;5049114;28;20036;-80
2022/12/02 04:26:33;;;;;;;0.30;0.30;;;;;;;6.67;72.61;102659.41;5038585;28;20073;-80
2022/12/02 04:28:59;;;;;;;2.30;1.55;;;;;;;6.66;72.83;102657.63;5040157;28;20025;-80
2022/12/02 04:31:25;;;;;;;0.20;0.20;;;;;;;6.64;73.09;102659.31;5041048;28;20497;-80
2022/12/02 04:33:51;;;;;;;0.10;0.10;;;;;;;6.62;72.68;102655.78;5039838;28;20397;-80
2022/12/02 04:36:17;;;;;;;0.45;0.45;;;;;;;6.59;72.26;102650.41;5038814;28;20117;-80
2022/12/02 04:38:43;;;;;;;1.50;1.02;;;;;;;6.56;71.88;102643.34;5037646;28;20029;-79
2022/12/02 04:41:09;;;;;;;2.60;2.30;;;;;;;6.56;72.43;102651.22;5039793;28;20037;-80
2022/12/02 04:43:35;;;;;;;0.50;0.50;;;;;;;6.58;72.66;102648.63;5046180;28;20096;-80
2022/12/02 04:46:01;;;;;;;0.10;0.10;;;;;;;6.56;72.39;102640.69;5056634;28;20035;-80
2022/12/02 04:48:27;;;;;;;0.38;0.38;;;;;;;6.58;72.78;102648.63;5049030;28;20021;-80
2022/12/02 04:50:53;;;;;;;0.30;0.30;;;;;;;6.57;72.53;102636.34;5045926;28;20057;-80
2022/12/02 04:53:19;;;;;;;0.30;0.30;;;;;;;6.56;72.27;102629.28;5048034;28;20021;-80
2022/12/02 04:55:45;;;;;;;0.73;0.63;;;;;;;6.56;72.23;102624.00;5045473;28;20025;-80
2022/12/02 04:58:15;;;;;;;0.82;0.47;;;;;;;6.60;72.20;102623.22;5039196;28;20042;-80
2022/12/02 05:00:41;;;;;;;0.35;0.35;;;;;;;6.59;72.27;102627.63;5044996;28;20040;-80
2022/12/02 05:03:07;;;;;;;1.33;1.30;;;;;;;6.60;72.36;102625.88;5043361;28;20029;-80
2022/12/02 05:05:33;;;;;;;1.50;1.50;;;;;;;6.61;72.01;102625.03;5041522;28;20081;-80
2022/12/02 05:07:59;;;;;;;0.50;0.50;;;;;;;6.62;72.00;102611.88;5034213;28;20030;-80
2022/12/02 05:10:26;;;;;;;0.60;0.60;;;;;;;6.61;71.61;102617.13;5031744;28;20061;-80
2022/12/02 05:12:52;;;;;;;0.52;0.52;;;;;;;6.60;71.92;102610.97;5043430;28;20044;-80
2022/12/02 05:15:19;;;;;;;1.15;1.15;;;;;;;6.62;72.17;102603.09;5052285;28;20021;-80
2022/12/02 05:17:45;;;;;;;1.10;1.10;;;;;;;6.61;71.98;102609.22;5045496;28;20085;-80
2022/12/02 05:20:12;;;;;;;0.15;0.15;;;;;;;6.63;72.21;102610.16;5043622;28;20033;-80
2022/12/02 05:22:39;;;;;;;2.42;2.33;;;;;;;6.64;72.22;102611.91;5040762;28;20072;-80
2022/12/02 05:25:05;;;;;;;0.75;0.75;;;;;;;6.64;72.00;102612.81;5026621;28;20026;-80
2022/12/02 05:27:31;;;;;;;0.47;0.47;;;;;;;6.63;71.80;102620.69;5029316;28;20021;-80
2022/12/02 05:29:57;;;;;;;0.30;0.30;;;;;;;6.63;72.21;102624.19;5028856;28;20034;-80
2022/12/02 05:32:23;;;;;;;0.25;0.25;;;;;;;6.62;71.52;102624.19;5019448;28;20038;-80
2022/12/02 05:34:49;;;;;;;1.60;1.58;;;;;;;6.61;71.85;102618.00;5043526;28;20045;-80
2022/12/02 05:37:16;;;;;;;0.10;0.10;;;;;;;6.63;72.19;102612.78;5043622;28;20118;-80
2022/12/02 05:39:42;;;;;;;2.92;2.72;;;;;;;6.63;71.87;102616.31;5031687;28;20041;-80
2022/12/02 05:42:12;;;;;;;2.15;0.95;;;;;;;6.68;72.21;102616.44;5028765;28;20049;-80
2022/12/02 05:44:41;;;;;;;0.10;0.10;;;;;;;6.65;71.95;102618.97;5034147;28;20033;-80
2022/12/02 05:47:13;;;;;;;1.05;1.05;;;;;;;6.68;71.78;102613.78;5042291;28;20026;-80
2022/12/02 05:49:40;;;;;;;0.20;0.20;;;;;;;6.67;71.94;102621.63;5030951;28;20041;-80
2022/12/02 05:52:30;;;;;;;0.20;0.20;;;;;;;6.69;71.85;102610.31;5027476;28;20025;-80
2022/12/02 05:55:00;;;;;;;0.57;0.57;;;;;;;6.67;71.90;102601.47;5031034;28;20030;-80
2022/12/02 05:57:29;;;;;;;7.68;1.75;;;;;;;6.69;71.96;102599.78;5029212;28;20033;-80
2022/12/02 06:02:51;;;;;;;0.77;0.77;;;;;;;6.72;71.95;102606.84;5069422;28;20401;-80
2022/12/02 06:05:28;;;;;;;0.43;0.43;;;;;;;6.75;71.98;102609.56;5069310;28;20068;-81
2022/12/02 06:07:58;;;;;;;0.55;0.55;;;;;;;6.73;72.25;102609.53;5062208;28;20500;-80
2022/12/02 06:10:27;;;;;;;1.25;1.17;;;;;;;6.72;72.32;102609.50;5075648;28;20028;-80
2022/12/02 06:12:57;;;;;;;2.25;2.15;;;;;;;6.70;72.18;102612.06;5076648;28;20034;-80
2022/12/02 06:15:23;;;;;;;0.25;0.25;;;;;;;6.68;72.45;102612.88;5069372;28;20503;-80
2022/12/02 06:17:50;;;;;;;0.35;0.35;;;;;;;6.61;71.86;102610.09;5076105;28;20074;-80
2022/12/02 06:20:26;;;;;;;1.67;1.58;;;;;;;6.61;71.71;102611.84;5076652;28;20035;-80
2022/12/02 06:22:53;;;;;;;1.48;1.38;;;;;;;6.56;71.45;102614.38;5076593;28;20036;-80
2022/12/02 06:25:24;;;;;;;0.20;0.20;;;;;;;6.47;70.61;102604.47;5056076;28;20083;-80
2022/12/02 06:27:54;;;;;;;0.30;0.30;;;;;;;6.51;72.08;102607.22;5057532;28;20035;-80
2022/12/02 06:30:20;;;;;;;2.50;2.40;;;;;;;6.47;72.28;102607.13;5057842;28;20029;-79
2022/12/02 06:32:54;;;;;;;0.20;0.20;;;;;;;6.47;71.81;102607.13;5061754;28;20029;-79
2022/12/02 06:35:27;;;;;;;0.63;0.63;;;;;;;6.47;72.42;102616.78;5055602;28;20028;-80
2022/12/02 06:37:57;;;;;;;0.32;0.32;;;;;;;6.46;72.47;102599.19;5056114;28;20029;-80
2022/12/02 06:40:28;;;;;;;1.38;1.05;;;;;;;6.39;71.92;102610.41;5055198;28;20025;-79
2022/12/02 06:42:58;;;;;;;1.30;1.30;;;;;;;6.35;72.11;102613.81;5054451;28;20043;-80
2022/12/02 06:45:28;;;;;;;0.28;0.28;;;;;;;6.32;72.06;102617.28;5057212;28;20029;-79
2022/12/02 06:48:22;;;;;;;0.75;0.75;;;;;;;6.30;71.47;102613.69;5064032;28;20021;-80
2022/12/02 06:50:49;;;;;;;0.45;0.45;;;;;;;6.22;72.29;102612.59;5054443;28;20083;-80
2022/12/02 06:53:24;;;;;;;0.52;0.52;;;;;;;6.22;72.13;102618.75;5053049;28;20033;-80
2022/12/02 06:55:57;;;;;;;0.20;0.20;;;;;;;6.17;72.04;102620.38;5055823;28;20021;-80
2022/12/02 06:58:28;;;;;;;0.20;0.20;;;;;;;6.16;72.03;102618.59;5053356;28;20025;-80
2022/12/02 07:01:21;;;;;;;0.28;0.28;;;;;;;6.15;71.69;102617.69;5056547;28;20029;-80
2022/12/02 07:03:59;;;;;;;;;;;;;;;6.20;71.23;102622.22;5054504;28;20033;-80
2022/12/02 07:06:27;;;;;;;0.30;0.30;;;;;;;6.06;70.70;102616.56;5059670;28;19996;-80
2022/12/02 07:08:56;;;;;;;0.20;0.20;;;;;;;6.09;71.75;102621.91;5054109;28;20077;-80
2022/12/02 07:11:59;;;;;;;1.25;1.15;;;;;;;6.09;71.29;102625.44;5064637;28;20029;-80
2022/12/02 07:17:30;;;;;;;0.73;0.60;;;;;;;6.07;71.22;102623.59;5121188;27;20757;-79
2022/12/02 07:22:55;;;;;;;0.40;0.40;;;;;;;6.05;70.51;102631.47;5082398;27;20369;-80
2022/12/02 07:25:40;;;;;;;;;;;;;;;6.17;70.40;102632.63;5105587;28;20101;-80
2022/12/02 07:28:31;;;;;;;0.20;0.20;;;;;;;6.10;70.91;102626.31;5076754;28;19908;-80
2022/12/02 07:31:02;;;;;;;1.65;1.27;;;;;;;6.02;70.76;102641.00;5088072;28;20032;-79
2022/12/02 07:33:29;;;;;;;0.98;0.98;;;;;;;5.99;71.33;102641.81;5086992;28;20040;-80
2022/12/02 07:35:55;;;;;;;2.13;2.08;;;;;;;5.96;71.10;102644.34;5077306;28;20082;-79
2022/12/02 07:38:21;;;;;;;1.35;1.05;;;;;;;5.89;70.51;102648.50;5071609;28;20178;-80
2022/12/02 07:40:47;;;;;;;0.30;0.30;;;;;;;5.93;71.02;102647.78;5073165;28;20017;-82
2022/12/02 07:43:13;;;;;;;0.60;0.60;;;;;;;5.88;70.21;102649.38;5074626;28;20033;-80
2022/12/02 07:45:39;;;;;;;0.10;0.10;;;;;;;5.91;70.86;102654.72;5079431;28;20416;-80
2022/12/02 07:48:06;;;;;;;4.28;1.25;;;;;;;5.89;70.20;102655.53;5079110;28;20642;-80
2022/12/02 07:50:32;;;;;;;0.52;0.52;;;;;;;5.91;70.27;102653.84;5073326;28;20071;-80
2022/12/02 07:52:58;;;;;;;0.75;0.75;;;;;;;5.89;70.03;102656.41;5071512;28;20036;-80
2022/12/02 07:55:24;;;;;;;0.20;0.20;;;;;;;5.91;70.06;102653.84;5074082;28;20032;-80
2022/12/02 07:57:50;;;;;;;1.92;1.75;;;;;;;5.86;69.55;102650.16;5073320;28;20055;-80
2022/12/02 08:00:17;;;;;;;0.20;0.20;;;;;;;5.85;69.95;102659.81;5084071;28;20082;-80
2022/12/02 08:02:43;;;;;;;0.80;0.80;;;;;;;5.85;70.74;102648.41;5074725;28;20025;-80
2022/12/02 08:05:11;;;;;;;0.10;0.10;;;;;;;5.81;69.49;102658.81;5087110;28;20426;-80
2022/12/02 08:07:37;;;;;;;3.10;1.98;;;;;;;5.82;70.30;102647.47;5078862;28;20052;-80
2022/12/02 08:10:04;;;;;;;1.58;1.48;;;;;;;5.80;70.69;102651.78;5071977;28;20029;-80
2022/12/02 08:12:30;;;;;;;0.20;0.20;;;;;;;5.78;70.02;102655.22;5072684;28;20037;-80
2022/12/02 08:14:57;;;;;;;0.20;0.20;;;;;;;5.78;69.93;102658.75;5076211;28;20510;-80
2022/12/02 08:17:23;;;;;;;1.00;1.00;;;;;;;5.84;70.82;102652.75;5078278;28;20039;-80
2022/12/02 08:19:49;;;;;;;0.20;0.20;;;;;;;5.83;69.97;102650.97;5071193;28;20025;-80
2022/12/02 08:22:15;;;;;;;0.28;0.28;;;;;;;5.90;70.74;102657.31;5073770;28;20032;-80
2022/12/02 08:24:41;;;;;;;0.20;0.20;;;;;;;5.93;70.44;102657.38;5072354;28;20567;-80
2022/12/02 08:27:07;;;;;;;0.20;0.20;;;;;;;5.96;70.37;102655.75;5077309;28;20103;-80
2022/12/02 08:29:33;;;;;;;0.20;0.20;;;;;;;5.97;70.21;102648.75;5079955;28;20035;-80
2022/12/02 08:31:59;;;;;;;1.65;1.35;;;;;;;5.92;69.17;102655.59;5080721;28;20046;-80
2022/12/02 08:34:25;;;;;;;0.22;0.22;;;;;;;5.93;69.22;102653.03;5062947;28;20035;-80
2022/12/02 08:36:51;;;;;;;0.20;0.20;;;;;;;5.94;69.31;102659.19;5070732;28;20040;-80
2022/12/02 08:39:18;;;;;;;1.02;1.02;;;;;;;5.96;69.18;102660.13;5063310;28;20114;-80
2022/12/02 08:41:44;;;;;;;0.20;0.20;;;;;;;6.01;70.48;102658.53;5059506;28;20068;-80
2022/12/02 08:44:10;;;;;;;0.35;0.35;;;;;;;6.04;70.18;102661.25;5059377;28;20772;-80
2022/12/02 08:46:36;;;;;;;0.32;0.32;;;;;;;6.07;69.94;102661.34;5059359;28;20555;-80
2022/12/02 08:49:02;;;;;;;1.13;1.13;;;;;;;6.10;69.54;102661.41;5062911;28;20032;-80
2022/12/02 08:51:28;;;;;;;0.43;0.43;;;;;;;6.15;69.78;102657.16;5066256;28;20021;-80
2022/12/02 08:53:54;;;;;;;0.40;0.40;;;;;;;6.17;69.56;102658.94;5060406;28;20029;-80
2022/12/02 08:56:21;;;;;;;0.95;0.95;;;;;;;6.19;69.45;102659.91;5067282;28;20516;-80
2022/12/02 08:58:47;;;;;;;0.22;0.22;;;;;;;6.21;69.81;102660.84;5076905;28;20024;-79
2022/12/02 09:01:13;;;;;;;0.10;0.10;;;;;;;6.21;69.50;102658.22;5077163;28;20115;-80
2022/12/02 09:03:39;;;;;;;3.38;3.13;;;;;;;6.24;70.53;102666.19;5066031;28;20048;-80
2022/12/02 09:06:06;;;;;;;1.65;1.08;;;;;;;6.23;69.30;102664.38;5074367;28;20043;-80
2022/12/02 09:08:32;;;;;;;3.83;3.50;;;;;;;6.23;69.18;102651.22;5058887;28;20408;-80
2022/12/02 09:10:59;;;;;;;0.20;0.20;;;;;;;6.14;67.92;102660.69;5062677;28;20599;-81
2022/12/02 09:13:25;;;;;;;9.68;1.33;;;;;;;6.19;68.86;102665.16;5079015;28;20082;-81
2022/12/02 09:15:51;;;;;;;0.10;0.10;;;;;;;6.20;68.91;102661.69;5082321;28;20087;-80
2022/12/02 09:18:17;;;;;;;0.28;0.28;;;;;;;6.23;69.64;102662.66;5083242;28;20500;-81
2022/12/02 09:20:43;;;;;;;0.55;0.55;;;;;;;6.23;68.99;102656.50;5083456;28;20036;-80
2022/12/02 09:23:09;;;;;;;1.85;1.75;;;;;;;6.23;68.68;102657.41;5076583;28;20044;-81
2022/12/02 09:25:35;;;;;;;0.35;0.35;;;;;;;6.27;68.98;102658.38;5077586;28;20380;-82
2022/12/02 09:28:01;;;;;;;0.40;0.40;;;;;;;6.29;69.08;102659.28;5075419;28;20036;-81
2022/12/02 09:30:27;;;;;;;2.17;1.55;;;;;;;6.30;68.70;102663.72;5073029;28;20575;-82
2022/12/02 09:32:53;;;;;;;0.75;0.75;;;;;;;6.32;68.89;102662.91;5073100;28;20036;-81
2022/12/02 09:35:19;;;;;;;0.10;0.10;;;;;;;6.36;68.93;102663.88;5074502;28;20053;-81
2022/12/02 09:37:45;;;;;;;1.10;1.10;;;;;;;6.36;68.82;102663.88;5067102;28;20033;-81
2022/12/02 09:40:12;;;;;;;0.95;0.95;;;;;;;6.41;69.22;102658.75;5069363;28;20465;-81
2022/12/02 09:42:38;;;;;;;0.28;0.28;;;;;;;6.45;69.34;102658.84;5062299;28;20075;-81
2022/12/02 09:45:04;;;;;;;0.35;0.35;;;;;;;6.45;68.34;102656.22;5066420;28;20044;-82
2022/12/02 09:47:31;;;;;;;0.28;0.28;;;;;;;6.48;69.29;102664.22;5065579;28;20037;-82
2022/12/02 09:49:57;;;;;;;0.98;0.95;;;;;;;6.45;69.16;102661.47;5065180;28;20567;-81
2022/12/02 09:52:25;;;;;;;0.90;0.90;;;;;;;6.46;69.58;102660.63;5064409;28;20024;-82
2022/12/02 09:54:54;;;;;;;0.20;0.20;;;;;;;6.40;68.40;102660.47;5060559;28;20461;-81
2022/12/02 09:57:24;;;;;;;0.57;0.57;;;;;;;6.43;69.41;102654.38;5055138;28;20021;-82
2022/12/02 09:59:51;;;;;;;1.20;1.20;;;;;;;6.43;68.79;102644.75;5056033;28;20135;-82
2022/12/02 10:02:28;;;;;;;0.47;0.47;;;;;;;6.46;68.16;102642.19;5063393;28;20073;-82
2022/12/02 10:04:58;;;;;;;0.40;0.40;;;;;;;6.48;68.54;102639.63;5066680;28;20043;-82
2022/12/02 10:07:24;;;;;;;0.32;0.32;;;;;;;6.52;68.41;102636.22;5056550;28;20040;-81
2022/12/02 10:09:50;;;;;;;0.30;0.30;;;;;;;6.56;69.46;102642.44;5056344;28;20044;-81
2022/12/02 10:12:16;;;;;;;0.20;0.20;;;;;;;6.54;68.54;102621.34;5057626;28;20036;-82
2022/12/02 10:14:47;;;;;;;0.10;0.10;;;;;;;6.60;68.96;102617.97;5058527;28;20033;-81
2022/12/02 10:17:18;;;;;;;0.70;0.65;;;;;;;6.64;68.99;102625.09;5059364;28;20119;-81
2022/12/02 10:19:45;;;;;;;0.32;0.32;;;;;;;6.64;67.91;102619.81;5077817;28;20039;-81
2022/12/02 10:22:15;;;;;;;0.57;0.57;;;;;;;6.71;68.86;102624.38;5056686;28;20763;-81
2022/12/02 10:24:41;;;;;;;0.98;0.95;;;;;;;6.72;68.72;102615.63;5055320;28;20090;-82
2022/12/02 10:27:21;;;;;;;0.20;0.20;;;;;;;6.72;68.75;102610.38;5055116;28;20021;-81
2022/12/02 10:29:47;;;;;;;0.55;0.55;;;;;;;6.69;67.75;102612.03;5054752;28;20037;-82
2022/12/02 10:32:28;;;;;;;0.30;0.30;;;;;;;6.65;67.15;102608.44;5058668;28;20100;-81
2022/12/02 10:35:08;;;;;;;0.32;0.32;;;;;;;6.57;67.84;102597.72;5065194;28;20041;-81
2022/12/02 10:37:34;;;;;;;0.13;0.13;;;;;;;6.34;65.68;102602.38;5082074;28;20021;-82
2022/12/02 10:40:14;;;;;;;0.95;0.85;;;;;;;6.37;66.89;102598.94;5062702;28;20029;-82
2022/12/02 10:42:41;;;;;;;0.20;0.20;;;;;;;6.31;67.94;102603.19;5066370;28;20028;-82
2022/12/02 10:45:16;;;;;;;0.17;0.17;;;;;;;6.35;67.67;102604.16;5061034;28;20033;-81
2022/12/02 10:47:42;;;;;;;0.20;0.20;;;;;;;6.39;67.77;102616.59;5062182;28;20040;-81
2022/12/02 10:50:18;;;;;;;0.35;0.35;;;;;;;6.52;67.64;102606.34;5057885;28;20032;-81
2022/12/02 10:55:27;;;;;;;0.17;0.17;;;;;;;6.64;66.90;102590.84;5094585;27;20386;-80
2022/12/02 10:57:54;;;;;;;1.27;1.27;;;;;;;6.74;67.73;102586.69;5090716;28;20059;-80
2022/12/02 11:00:23;;;;;;;0.20;0.20;;;;;;;6.83;67.79;102591.28;5088338;28;20032;-82
2022/12/02 11:02:53;;;;;;;0.20;0.20;;;;;;;6.89;66.50;102581.81;5094849;28;20123;-80
2022/12/02 11:05:31;;;;;;;0.85;0.85;;;;;;;6.92;66.98;102587.13;5089298;28;20074;-81
2022/12/02 11:08:00;;;;;;;0.20;0.20;;;;;;;6.82;65.98;102585.13;5088826;28;20062;-81
2022/12/02 11:10:37;;;;;;;1.50;1.45;;;;;;;6.82;65.90;102581.59;5088224;28;20039;-81
2022/12/02 11:15:42;;;;;;;1.23;1.23;;;;;;;6.85;66.33;102573.78;5109265;27;1202997;-79
2022/12/02 11:35:12;;;;;;;0.95;0.95;;;;;;;7.33;66.07;102562.56;5100941;27;20426;-79
2022/12/02 11:37:41;;;;;;;0.30;0.30;;;;;;;7.30;65.23;102567.75;5079685;28;20040;-80
2022/12/02 11:42:47;;;;;;;0.50;0.50;;;;;;;7.20;64.50;102577.22;5072207;28;20404;-80
2022/12/02 11:53:14;;;;;;;0.30;0.30;;;;;;;7.01;64.14;102568.00;5089661;27;20063;-80
2022/12/02 11:55:45;;;;;;;0.90;0.90;;;;;;;7.00;66.32;102576.75;5080655;28;20054;-80
2022/12/02 11:58:20;;;;;;;2.05;1.45;;;;;;;6.95;65.61;102575.75;5083614;28;20032;-80
2022/12/02 12:03:53;;;;;;;0.20;0.20;;;;;;;6.85;64.37;102568.50;5092690;27;20389;-80
2022/12/02 12:06:23;;;;;;;0.60;0.60;;;;;;;6.80;64.56;102569.31;5081292;28;20060;-80
2022/12/02 12:08:53;;;;;;;0.63;0.63;;;;;;;6.73;64.78;102562.09;5074241;28;20029;-80
2022/12/02 12:16:50;;;;;;;3.50;1.75;;;;;;;6.74;66.04;102562.97;5109903;27;20481;-81
2022/12/02 12:21:54;;;;;;;0.13;0.13;;;;;;;6.67;66.40;102563.69;5107629;27;1246964;-81
2022/12/02 12:29:40;;;;;;;0.82;0.82;;;;;;;6.56;66.36;102552.91;5113664;27;20387;-81
2022/12/02 12:32:09;;;;;;;0.32;0.32;;;;;;;6.54;65.57;102551.97;5110221;28;20024;-81
2022/12/02 12:34:35;;;;;;;0.90;0.82;;;;;;;6.53;65.35;102556.34;5111809;28;20055;-81
2022/12/02 12:37:01;;;;;;;0.40;0.40;;;;;;;6.54;65.75;102555.50;5115576;28;20503;-80
2022/12/02 12:39:27;;;;;;;0.20;0.20;;;;;;;6.55;66.39;102556.41;5110364;28;20032;-80
2022/12/02 12:41:54;;;;;;;0.57;0.57;;;;;;;6.50;65.96;102555.41;5114274;28;20487;-81
2022/12/02 12:44:20;;;;;;;0.35;0.35;;;;;;;6.44;65.33;102550.84;5110286;28;20031;-80